sensor_id;sensor_type;location;lat;lon;timestamp;P1;durP1;ratioP1;P2;durP2;ratioP2
974;SDS011;6115;49.296;10.602;2022-08-30T00:03:47;9.70;;;7.33;;
974;SDS011;6115;49.296;10.602;2022-08-30T00:08:48;7.43;;;6.83;;
974;SDS011;6115;49.296;10.602;2022-08-30T00:13:50;8.60;;;7.07;;
974;SDS011;6115;49.296;10.602;2022-08-30T00:18:52;8.13;;;7.07;;
974;SDS011;6115;49.296;10.602;2022-08-30T00:23:53;11.60;;;8.00;;
974;SDS011;6115;49.296;10.602;2022-08-30T00:28:54;9.83;;;8.10;;
974;SDS011;6115;49.296;10.602;2022-08-30T00:33:55;8.37;;;7.30;;
974;SDS011;6115;49.296;10.602;2022-08-30T00:38:56;9.47;;;7.50;;
974;SDS011;6115;49.296;10.602;2022-08-30T00:43:56;7.27;;;6.57;;
974;SDS011;6115;49.296;10.602;2022-08-30T00:48:58;7.70;;;7.03;;
974;SDS011;6115;49.296;10.602;2022-08-30T00:54:02;9.63;;;7.60;;
974;SDS011;6115;49.296;10.602;2022-08-30T00:59:04;8.33;;;6.80;;
974;SDS011;6115;49.296;10.602;2022-08-30T01:04:05;7.20;;;6.50;;
974;SDS011;6115;49.296;10.602;2022-08-30T01:09:08;7.37;;;6.53;;
974;SDS011;6115;49.296;10.602;2022-08-30T01:14:08;8.00;;;7.20;;
974;SDS011;6115;49.296;10.602;2022-08-30T01:24:35;7.73;;;6.60;;
974;SDS011;6115;49.296;10.602;2022-08-30T01:29:36;8.23;;;7.43;;
974;SDS011;6115;49.296;10.602;2022-08-30T01:34:37;8.60;;;7.40;;
974;SDS011;6115;49.296;10.602;2022-08-30T01:39:37;9.43;;;7.70;;
974;SDS011;6115;49.296;10.602;2022-08-30T01:44:38;11.10;;;7.30;;
974;SDS011;6115;49.296;10.602;2022-08-30T01:49:39;8.20;;;7.50;;
974;SDS011;6115;49.296;10.602;2022-08-30T01:54:42;11.57;;;6.87;;
974;SDS011;6115;49.296;10.602;2022-08-30T01:59:44;7.83;;;6.97;;
974;SDS011;6115;49.296;10.602;2022-08-30T02:04:46;8.53;;;7.67;;
974;SDS011;6115;49.296;10.602;2022-08-30T02:09:47;9.40;;;7.20;;
974;SDS011;6115;49.296;10.602;2022-08-30T02:14:49;9.20;;;7.40;;
974;SDS011;6115;49.296;10.602;2022-08-30T02:19:50;10.73;;;6.60;;
974;SDS011;6115;49.296;10.602;2022-08-30T02:24:50;7.13;;;6.50;;
974;SDS011;6115;49.296;10.602;2022-08-30T02:29:51;11.50;;;7.20;;
974;SDS011;6115;49.296;10.602;2022-08-30T02:34:52;8.33;;;7.43;;
974;SDS011;6115;49.296;10.602;2022-08-30T02:39:53;8.30;;;7.50;;
974;SDS011;6115;49.296;10.602;2022-08-30T02:44:54;11.93;;;8.27;;
974;SDS011;6115;49.296;10.602;2022-08-30T02:49:55;10.50;;;7.00;;
974;SDS011;6115;49.296;10.602;2022-08-30T02:54:56;8.37;;;7.57;;
974;SDS011;6115;49.296;10.602;2022-08-30T02:59:56;8.73;;;6.90;;
974;SDS011;6115;49.296;10.602;2022-08-30T03:04:57;11.10;;;7.80;;
974;SDS011;6115;49.296;10.602;2022-08-30T03:09:58;8.23;;;7.43;;
974;SDS011;6115;49.296;10.602;2022-08-30T03:14:59;9.20;;;7.53;;
974;SDS011;6115;49.296;10.602;2022-08-30T03:19:59;8.07;;;7.27;;
974;SDS011;6115;49.296;10.602;2022-08-30T03:25:01;8.90;;;7.10;;
974;SDS011;6115;49.296;10.602;2022-08-30T03:30:03;8.00;;;6.93;;
974;SDS011;6115;49.296;10.602;2022-08-30T03:35:07;7.70;;;6.90;;
974;SDS011;6115;49.296;10.602;2022-08-30T03:40:09;8.67;;;7.30;;
974;SDS011;6115;49.296;10.602;2022-08-30T03:45:12;8.20;;;7.40;;
974;SDS011;6115;49.296;10.602;2022-08-30T03:50:14;10.07;;;7.60;;
974;SDS011;6115;49.296;10.602;2022-08-30T03:55:15;8.13;;;7.17;;
974;SDS011;6115;49.296;10.602;2022-08-30T04:00:16;10.73;;;7.53;;
974;SDS011;6115;49.296;10.602;2022-08-30T04:05:17;7.87;;;6.83;;
974;SDS011;6115;49.296;10.602;2022-08-30T04:10:18;12.60;;;7.03;;
974;SDS011;6115;49.296;10.602;2022-08-30T04:15:20;14.13;;;7.63;;
974;SDS011;6115;49.296;10.602;2022-08-30T04:20:20;8.40;;;7.40;;
974;SDS011;6115;49.296;10.602;2022-08-30T04:25:21;9.73;;;7.47;;
974;SDS011;6115;49.296;10.602;2022-08-30T04:30:22;11.70;;;7.87;;
974;SDS011;6115;49.296;10.602;2022-08-30T04:35:22;12.20;;;7.80;;
974;SDS011;6115;49.296;10.602;2022-08-30T04:40:24;11.90;;;7.20;;
974;SDS011;6115;49.296;10.602;2022-08-30T04:45:24;12.37;;;7.93;;
974;SDS011;6115;49.296;10.602;2022-08-30T04:50:25;12.97;;;7.77;;
974;SDS011;6115;49.296;10.602;2022-08-30T04:55:25;11.47;;;8.17;;
974;SDS011;6115;49.296;10.602;2022-08-30T05:00:27;8.90;;;7.77;;
974;SDS011;6115;49.296;10.602;2022-08-30T05:05:27;8.63;;;7.73;;
974;SDS011;6115;49.296;10.602;2022-08-30T05:10:41;8.47;;;7.03;;
974;SDS011;6115;49.296;10.602;2022-08-30T05:15:47;15.60;;;7.90;;
974;SDS011;6115;49.296;10.602;2022-08-30T05:20:47;10.20;;;8.37;;
974;SDS011;6115;49.296;10.602;2022-08-30T05:25:48;8.97;;;8.17;;
974;SDS011;6115;49.296;10.602;2022-08-30T05:30:49;9.67;;;8.17;;
974;SDS011;6115;49.296;10.602;2022-08-30T05:35:49;12.80;;;9.00;;
974;SDS011;6115;49.296;10.602;2022-08-30T05:40:50;9.60;;;8.70;;
974;SDS011;6115;49.296;10.602;2022-08-30T05:45:59;9.80;;;7.90;;
974;SDS011;6115;49.296;10.602;2022-08-30T05:56:18;12.73;;;9.10;;
974;SDS011;6115;49.296;10.602;2022-08-30T06:01:24;9.70;;;8.70;;
974;SDS011;6115;49.296;10.602;2022-08-30T06:06:27;17.73;;;9.03;;
974;SDS011;6115;49.296;10.602;2022-08-30T06:11:28;12.63;;;8.77;;
974;SDS011;6115;49.296;10.602;2022-08-30T06:16:29;13.40;;;8.87;;
974;SDS011;6115;49.296;10.602;2022-08-30T06:21:31;9.87;;;7.93;;
974;SDS011;6115;49.296;10.602;2022-08-30T06:26:36;8.60;;;7.70;;
974;SDS011;6115;49.296;10.602;2022-08-30T06:31:40;10.03;;;8.30;;
974;SDS011;6115;49.296;10.602;2022-08-30T06:36:41;11.03;;;8.30;;
974;SDS011;6115;49.296;10.602;2022-08-30T06:41:42;9.27;;;8.33;;
974;SDS011;6115;49.296;10.602;2022-08-30T06:46:43;9.03;;;7.50;;
974;SDS011;6115;49.296;10.602;2022-08-30T06:51:43;8.23;;;7.37;;
974;SDS011;6115;49.296;10.602;2022-08-30T06:56:44;7.47;;;6.87;;
974;SDS011;6115;49.296;10.602;2022-08-30T07:01:45;9.80;;;7.80;;
974;SDS011;6115;49.296;10.602;2022-08-30T07:06:46;10.40;;;8.30;;
974;SDS011;6115;49.296;10.602;2022-08-30T07:11:46;8.60;;;7.80;;
974;SDS011;6115;49.296;10.602;2022-08-30T07:16:47;13.70;;;8.80;;
974;SDS011;6115;49.296;10.602;2022-08-30T07:21:48;9.27;;;8.27;;
974;SDS011;6115;49.296;10.602;2022-08-30T07:26:49;11.70;;;8.00;;
974;SDS011;6115;49.296;10.602;2022-08-30T07:31:50;10.80;;;7.93;;
974;SDS011;6115;49.296;10.602;2022-08-30T07:36:51;8.80;;;7.50;;
974;SDS011;6115;49.296;10.602;2022-08-30T07:41:52;7.80;;;7.10;;
974;SDS011;6115;49.296;10.602;2022-08-30T07:46:52;10.27;;;7.43;;
974;SDS011;6115;49.296;10.602;2022-08-30T07:51:56;9.50;;;7.17;;
974;SDS011;6115;49.296;10.602;2022-08-30T07:56:57;8.40;;;6.90;;
974;SDS011;6115;49.296;10.602;2022-08-30T08:01:58;8.30;;;7.13;;
974;SDS011;6115;49.296;10.602;2022-08-30T08:06:58;9.77;;;6.97;;
974;SDS011;6115;49.296;10.602;2022-08-30T08:11:59;9.83;;;7.60;;
974;SDS011;6115;49.296;10.602;2022-08-30T08:17:00;7.20;;;6.23;;
974;SDS011;6115;49.296;10.602;2022-08-30T08:22:00;10.30;;;6.57;;
974;SDS011;6115;49.296;10.602;2022-08-30T08:27:01;7.73;;;6.90;;
974;SDS011;6115;49.296;10.602;2022-08-30T08:32:02;6.57;;;5.87;;
974;SDS011;6115;49.296;10.602;2022-08-30T08:37:03;6.40;;;5.53;;
974;SDS011;6115;49.296;10.602;2022-08-30T08:42:06;6.10;;;5.60;;
974;SDS011;6115;49.296;10.602;2022-08-30T08:47:14;12.47;;;6.13;;
974;SDS011;6115;49.296;10.602;2022-08-30T08:52:19;8.40;;;5.60;;
974;SDS011;6115;49.296;10.602;2022-08-30T08:57:42;7.70;;;6.40;;
974;SDS011;6115;49.296;10.602;2022-08-30T09:07:48;6.90;;;4.00;;
974;SDS011;6115;49.296;10.602;2022-08-30T09:12:54;4.80;;;4.37;;
974;SDS011;6115;49.296;10.602;2022-08-30T09:17:56;5.83;;;4.40;;
974;SDS011;6115;49.296;10.602;2022-08-30T09:28:13;4.77;;;4.07;;
974;SDS011;6115;49.296;10.602;2022-08-30T09:33:18;6.93;;;4.10;;
974;SDS011;6115;49.296;10.602;2022-08-30T09:38:20;4.57;;;4.17;;
974;SDS011;6115;49.296;10.602;2022-08-30T09:43:39;5.03;;;4.40;;
974;SDS011;6115;49.296;10.602;2022-08-30T09:48:40;5.37;;;4.17;;
974;SDS011;6115;49.296;10.602;2022-08-30T10:14:49;4.50;;;3.73;;
974;SDS011;6115;49.296;10.602;2022-08-30T10:25:27;5.40;;;3.63;;
974;SDS011;6115;49.296;10.602;2022-08-30T10:30:32;4.43;;;4.03;;
974;SDS011;6115;49.296;10.602;2022-08-30T10:35:36;5.07;;;3.97;;
974;SDS011;6115;49.296;10.602;2022-08-30T10:40:43;5.43;;;4.27;;
974;SDS011;6115;49.296;10.602;2022-08-30T10:46:13;4.73;;;4.20;;
974;SDS011;6115;49.296;10.602;2022-08-30T10:51:30;5.00;;;2.70;;
974;SDS011;6115;49.296;10.602;2022-08-30T10:56:34;6.17;;;3.23;;
974;SDS011;6115;49.296;10.602;2022-08-30T11:12:54;3.60;;;3.30;;
974;SDS011;6115;49.296;10.602;2022-08-30T11:18:14;3.43;;;2.70;;
974;SDS011;6115;49.296;10.602;2022-08-30T11:33:43;3.40;;;3.10;;
974;SDS011;6115;49.296;10.602;2022-08-30T11:43:50;4.50;;;3.30;;
974;SDS011;6115;49.296;10.602;2022-08-30T11:48:53;3.17;;;2.87;;
974;SDS011;6115;49.296;10.602;2022-08-30T11:54:01;3.10;;;2.90;;
974;SDS011;6115;49.296;10.602;2022-08-30T11:59:24;3.73;;;2.87;;
974;SDS011;6115;49.296;10.602;2022-08-30T12:09:58;3.53;;;2.50;;
974;SDS011;6115;49.296;10.602;2022-08-30T12:14:59;2.60;;;2.40;;
974;SDS011;6115;49.296;10.602;2022-08-30T12:20:00;2.97;;;2.73;;
974;SDS011;6115;49.296;10.602;2022-08-30T12:25:12;4.37;;;3.23;;
974;SDS011;6115;49.296;10.602;2022-08-30T12:30:23;3.33;;;2.97;;
974;SDS011;6115;49.296;10.602;2022-08-30T12:35:26;3.63;;;3.03;;
974;SDS011;6115;49.296;10.602;2022-08-30T12:40:28;3.00;;;2.80;;
974;SDS011;6115;49.296;10.602;2022-08-30T12:45:51;3.30;;;2.73;;
974;SDS011;6115;49.296;10.602;2022-08-30T12:50:53;3.40;;;3.07;;
974;SDS011;6115;49.296;10.602;2022-08-30T12:56:00;5.50;;;2.90;;
974;SDS011;6115;49.296;10.602;2022-08-30T13:01:10;5.63;;;3.00;;
974;SDS011;6115;49.296;10.602;2022-08-30T13:06:14;3.50;;;3.17;;
974;SDS011;6115;49.296;10.602;2022-08-30T13:11:55;3.30;;;3.00;;
974;SDS011;6115;49.296;10.602;2022-08-30T13:17:09;3.87;;;3.27;;
974;SDS011;6115;49.296;10.602;2022-08-30T13:22:28;3.07;;;2.87;;
974;SDS011;6115;49.296;10.602;2022-08-30T13:27:31;4.07;;;2.83;;
974;SDS011;6115;49.296;10.602;2022-08-30T13:32:33;3.13;;;2.77;;
974;SDS011;6115;49.296;10.602;2022-08-30T13:37:40;3.97;;;3.20;;
974;SDS011;6115;49.296;10.602;2022-08-30T13:42:42;3.23;;;2.83;;
974;SDS011;6115;49.296;10.602;2022-08-30T13:47:43;4.40;;;3.00;;
974;SDS011;6115;49.296;10.602;2022-08-30T13:52:45;3.97;;;3.10;;
974;SDS011;6115;49.296;10.602;2022-08-30T13:57:46;3.10;;;2.80;;
974;SDS011;6115;49.296;10.602;2022-08-30T14:02:47;3.30;;;3.00;;
974;SDS011;6115;49.296;10.602;2022-08-30T14:07:48;3.03;;;2.73;;
974;SDS011;6115;49.296;10.602;2022-08-30T14:12:49;3.00;;;2.70;;
974;SDS011;6115;49.296;10.602;2022-08-30T14:17:50;3.70;;;3.00;;
974;SDS011;6115;49.296;10.602;2022-08-30T14:22:50;4.60;;;2.63;;
974;SDS011;6115;49.296;10.602;2022-08-30T14:27:51;3.03;;;2.83;;
974;SDS011;6115;49.296;10.602;2022-08-30T14:32:51;3.00;;;2.80;;
974;SDS011;6115;49.296;10.602;2022-08-30T14:37:52;2.90;;;2.60;;
974;SDS011;6115;49.296;10.602;2022-08-30T14:42:53;4.80;;;2.70;;
974;SDS011;6115;49.296;10.602;2022-08-30T14:47:55;5.67;;;2.87;;
974;SDS011;6115;49.296;10.602;2022-08-30T14:52:56;5.07;;;3.17;;
974;SDS011;6115;49.296;10.602;2022-08-30T14:57:57;3.73;;;3.00;;
974;SDS011;6115;49.296;10.602;2022-08-30T15:02:57;3.27;;;2.63;;
974;SDS011;6115;49.296;10.602;2022-08-30T15:07:58;3.90;;;3.10;;
974;SDS011;6115;49.296;10.602;2022-08-30T15:12:59;3.23;;;3.03;;
974;SDS011;6115;49.296;10.602;2022-08-30T15:17:59;3.33;;;3.03;;
974;SDS011;6115;49.296;10.602;2022-08-30T15:23:00;4.00;;;3.70;;
974;SDS011;6115;49.296;10.602;2022-08-30T15:28:00;15.93;;;3.53;;
974;SDS011;6115;49.296;10.602;2022-08-30T15:33:01;4.37;;;3.20;;
974;SDS011;6115;49.296;10.602;2022-08-30T15:38:02;4.00;;;3.00;;
974;SDS011;6115;49.296;10.602;2022-08-30T15:43:03;3.50;;;3.20;;
974;SDS011;6115;49.296;10.602;2022-08-30T15:48:04;3.63;;;3.30;;
974;SDS011;6115;49.296;10.602;2022-08-30T15:53:04;3.40;;;3.00;;
974;SDS011;6115;49.296;10.602;2022-08-30T15:58:05;10.40;;;3.23;;
974;SDS011;6115;49.296;10.602;2022-08-30T16:03:06;6.73;;;3.90;;
974;SDS011;6115;49.296;10.602;2022-08-30T16:08:06;3.17;;;2.97;;
974;SDS011;6115;49.296;10.602;2022-08-30T16:13:07;4.33;;;3.00;;
974;SDS011;6115;49.296;10.602;2022-08-30T16:18:08;4.50;;;3.50;;
974;SDS011;6115;49.296;10.602;2022-08-30T16:23:09;6.17;;;4.00;;
974;SDS011;6115;49.296;10.602;2022-08-30T16:28:10;12.10;;;3.90;;
974;SDS011;6115;49.296;10.602;2022-08-30T16:33:11;4.87;;;3.60;;
974;SDS011;6115;49.296;10.602;2022-08-30T16:38:11;14.03;;;4.30;;
974;SDS011;6115;49.296;10.602;2022-08-30T16:43:12;4.87;;;3.53;;
974;SDS011;6115;49.296;10.602;2022-08-30T16:48:13;7.60;;;4.23;;
974;SDS011;6115;49.296;10.602;2022-08-30T16:53:14;7.80;;;4.27;;
974;SDS011;6115;49.296;10.602;2022-08-30T16:58:15;15.43;;;3.53;;
974;SDS011;6115;49.296;10.602;2022-08-30T17:03:16;6.90;;;3.87;;
974;SDS011;6115;49.296;10.602;2022-08-30T17:08:17;8.13;;;4.57;;
974;SDS011;6115;49.296;10.602;2022-08-30T17:13:18;8.10;;;3.80;;
974;SDS011;6115;49.296;10.602;2022-08-30T17:18:19;4.40;;;4.00;;
974;SDS011;6115;49.296;10.602;2022-08-30T17:23:19;4.70;;;4.30;;
974;SDS011;6115;49.296;10.602;2022-08-30T17:28:21;5.50;;;4.37;;
974;SDS011;6115;49.296;10.602;2022-08-30T17:33:22;3.70;;;3.30;;
974;SDS011;6115;49.296;10.602;2022-08-30T17:38:22;4.87;;;3.53;;
974;SDS011;6115;49.296;10.602;2022-08-30T17:43:23;5.73;;;3.97;;
974;SDS011;6115;49.296;10.602;2022-08-30T17:48:23;3.93;;;3.20;;
974;SDS011;6115;49.296;10.602;2022-08-30T17:53:24;8.00;;;3.73;;
974;SDS011;6115;49.296;10.602;2022-08-30T17:58:25;8.37;;;3.50;;
974;SDS011;6115;49.296;10.602;2022-08-30T18:03:25;3.93;;;3.30;;
974;SDS011;6115;49.296;10.602;2022-08-30T18:08:26;8.27;;;3.97;;
974;SDS011;6115;49.296;10.602;2022-08-30T18:13:26;5.80;;;3.90;;
974;SDS011;6115;49.296;10.602;2022-08-30T18:18:27;5.83;;;4.00;;
974;SDS011;6115;49.296;10.602;2022-08-30T18:23:28;7.70;;;4.27;;
974;SDS011;6115;49.296;10.602;2022-08-30T18:28:28;4.97;;;4.13;;
974;SDS011;6115;49.296;10.602;2022-08-30T18:33:32;4.27;;;3.87;;
974;SDS011;6115;49.296;10.602;2022-08-30T18:38:33;4.57;;;3.90;;
974;SDS011;6115;49.296;10.602;2022-08-30T18:43:34;7.13;;;3.90;;
974;SDS011;6115;49.296;10.602;2022-08-30T18:48:36;6.97;;;4.00;;
974;SDS011;6115;49.296;10.602;2022-08-30T18:53:37;7.03;;;4.20;;
974;SDS011;6115;49.296;10.602;2022-08-30T18:58:42;7.17;;;4.27;;
974;SDS011;6115;49.296;10.602;2022-08-30T19:03:44;4.90;;;3.97;;
974;SDS011;6115;49.296;10.602;2022-08-30T19:08:44;6.03;;;4.10;;
974;SDS011;6115;49.296;10.602;2022-08-30T19:13:45;7.03;;;3.63;;
974;SDS011;6115;49.296;10.602;2022-08-30T19:18:45;5.23;;;4.10;;
974;SDS011;6115;49.296;10.602;2022-08-30T19:23:46;6.70;;;4.10;;
974;SDS011;6115;49.296;10.602;2022-08-30T19:28:46;7.30;;;4.20;;
974;SDS011;6115;49.296;10.602;2022-08-30T19:33:47;4.07;;;3.77;;
974;SDS011;6115;49.296;10.602;2022-08-30T19:38:48;4.87;;;3.90;;
974;SDS011;6115;49.296;10.602;2022-08-30T19:43:48;4.20;;;3.80;;
974;SDS011;6115;49.296;10.602;2022-08-30T19:48:49;4.33;;;3.93;;
974;SDS011;6115;49.296;10.602;2022-08-30T19:53:49;4.47;;;3.90;;
974;SDS011;6115;49.296;10.602;2022-08-30T19:58:50;4.03;;;3.63;;
974;SDS011;6115;49.296;10.602;2022-08-30T20:03:51;6.57;;;4.67;;
974;SDS011;6115;49.296;10.602;2022-08-30T20:08:51;6.80;;;4.70;;
974;SDS011;6115;49.296;10.602;2022-08-30T20:13:52;6.10;;;4.17;;
974;SDS011;6115;49.296;10.602;2022-08-30T20:18:52;7.40;;;4.80;;
974;SDS011;6115;49.296;10.602;2022-08-30T20:23:53;6.87;;;3.87;;
974;SDS011;6115;49.296;10.602;2022-08-30T20:28:54;5.20;;;4.67;;
974;SDS011;6115;49.296;10.602;2022-08-30T20:33:55;5.40;;;4.70;;
974;SDS011;6115;49.296;10.602;2022-08-30T20:38:55;6.50;;;5.10;;
974;SDS011;6115;49.296;10.602;2022-08-30T20:43:57;6.53;;;4.27;;
974;SDS011;6115;49.296;10.602;2022-08-30T20:48:58;5.23;;;4.73;;
974;SDS011;6115;49.296;10.602;2022-08-30T20:54:00;5.60;;;5.10;;
974;SDS011;6115;49.296;10.602;2022-08-30T20:59:01;5.37;;;4.57;;
974;SDS011;6115;49.296;10.602;2022-08-30T21:04:04;9.70;;;5.33;;
974;SDS011;6115;49.296;10.602;2022-08-30T21:09:06;5.90;;;4.30;;
974;SDS011;6115;49.296;10.602;2022-08-30T21:14:07;7.67;;;4.30;;
974;SDS011;6115;49.296;10.602;2022-08-30T21:19:08;5.67;;;4.47;;
974;SDS011;6115;49.296;10.602;2022-08-30T21:24:09;5.37;;;4.87;;
974;SDS011;6115;49.296;10.602;2022-08-30T21:29:09;7.60;;;4.80;;
974;SDS011;6115;49.296;10.602;2022-08-30T21:34:10;5.63;;;4.30;;
974;SDS011;6115;49.296;10.602;2022-08-30T21:39:19;6.10;;;3.73;;
974;SDS011;6115;49.296;10.602;2022-08-30T21:44:21;4.90;;;4.40;;
974;SDS011;6115;49.296;10.602;2022-08-30T21:49:23;10.23;;;4.03;;
974;SDS011;6115;49.296;10.602;2022-08-30T21:54:24;9.70;;;4.53;;
974;SDS011;6115;49.296;10.602;2022-08-30T21:59:26;4.67;;;4.27;;
974;SDS011;6115;49.296;10.602;2022-08-30T22:04:27;6.23;;;5.10;;
974;SDS011;6115;49.296;10.602;2022-08-30T22:09:28;8.57;;;5.97;;
974;SDS011;6115;49.296;10.602;2022-08-30T22:14:29;7.43;;;5.30;;
974;SDS011;6115;49.296;10.602;2022-08-30T22:19:30;7.70;;;5.80;;
974;SDS011;6115;49.296;10.602;2022-08-30T22:24:31;6.20;;;5.60;;
974;SDS011;6115;49.296;10.602;2022-08-30T22:29:32;6.80;;;6.03;;
974;SDS011;6115;49.296;10.602;2022-08-30T22:34:32;7.00;;;6.30;;
974;SDS011;6115;49.296;10.602;2022-08-30T22:39:33;7.03;;;5.73;;
974;SDS011;6115;49.296;10.602;2022-08-30T22:44:34;7.90;;;6.33;;
974;SDS011;6115;49.296;10.602;2022-08-30T22:49:34;6.67;;;6.00;;
974;SDS011;6115;49.296;10.602;2022-08-30T22:54:35;8.93;;;6.53;;
974;SDS011;6115;49.296;10.602;2022-08-30T22:59:36;7.70;;;6.63;;
974;SDS011;6115;49.296;10.602;2022-08-30T23:04:37;7.73;;;6.13;;
974;SDS011;6115;49.296;10.602;2022-08-30T23:09:38;6.80;;;6.20;;
974;SDS011;6115;49.296;10.602;2022-08-30T23:14:38;8.17;;;6.60;;
974;SDS011;6115;49.296;10.602;2022-08-30T23:19:39;11.53;;;6.80;;
974;SDS011;6115;49.296;10.602;2022-08-30T23:24:40;7.57;;;6.87;;
974;SDS011;6115;49.296;10.602;2022-08-30T23:29:59;12.10;;;6.10;;
974;SDS011;6115;49.296;10.602;2022-08-30T23:35:19;7.33;;;6.30;;
974;SDS011;6115;49.296;10.602;2022-08-30T23:40:38;6.10;;;5.60;;
974;SDS011;6115;49.296;10.602;2022-08-30T23:45:57;6.47;;;5.87;;
974;SDS011;6115;49.296;10.602;2022-08-30T23:51:16;6.90;;;5.53;;
974;SDS011;6115;49.296;10.602;2022-08-30T23:56:36;7.43;;;6.60;;
